Credit Acceptance Corp (CACC) Latest Bloomsberg Price


Mffais Ranking #61 Overall / #1 Industry
Industry: Consumer Finance

Number of Companies: 111 (Ranking #1515 Overall/#19 Industry)
Inflow: $ 172,002 (K) (Ranking #679 Overall/#13 Industry)
Outflow: $ -32,924 (K)
Mffais Flow: $ 139,077 (K) (Ranking #61 Overall/#1 Industry)


Receive a FREE weekly executive review of stocks moving into the top 10, taking the top industy spot or moving up within their industry. Sent directly to your Inbox every Saturday. Sign up today and get last week's review immediately sent to you.

We value and respect your privacy. Please read our Terms and Conditions which states our firm commitment to your privacy. Your email address will not be shared with a third party, nor will it be sold or used for purposes other than subscription for the weekly review.

Owner CPOR Shares Action Qty Chg Invested (K) Total Current Value (K)
Hound Partners Llc 2016-09-30 514,900 New Holding 514,900 $ 97,475 $ 97,475
Clough Capital Partners L P 2016-09-30 116,930 New Holding 116,930 $ 22,136 $ 22,136
Hsbc Holdings Plc 2016-09-30 100,610 New Holding 100,610 $ 19,046 $ 19,046
Ancient Art L P 2016-09-30 202,440 Added More 62,864 $ 11,900 $ 38,323
Soros Fund Management Llc 2016-09-30 34,932 New Holding 34,932 $ 6,612 $ 6,612
First Quadrant L P Ca 2016-09-30 25,053 New Holding 25,053 $ 4,742 $ 4,742
Peak6 Investments L P 2016-09-30 9,596 New Holding 9,596 $ 1,816 $ 1,816
Pnc Financial Services Group Inc 2016-09-30 315,741 Added More 9,151 $ 1,732 $ 59,772
Northern Trust Corp 2016-09-30 44,245 Added More 5,482 $ 1,037 $ 8,376
Dimensional Fund Advisors Lp 2016-09-30 173,060 Added More 5,027 $ 951 $ 32,761
Simplex Trading Llc 2016-09-30 4,249 Added More 3,780 $ 715 $ 804
Babson Capital Management Llc 2016-09-30 3,100 New Holding 3,100 $ 586 $ 586
Two Sigma Securities Llc 2016-09-30 2,939 New Holding 2,939 $ 556 $ 556
Force Capital Management Llc 2016-09-30 15,000 Added More 2,658 $ 503 $ 2,839
Kcg Holdings Inc 2016-09-30 1,701 New Holding 1,701 $ 322 $ 322
Cubist Systematic Strategies Llc 2016-09-30 1,664 New Holding 1,664 $ 315 $ 315
Tlp Group Llc 2016-09-30 1,280 New Holding 1,280 $ 242 $ 242
Stevens Capital Management Lp 2016-09-30 1,017 New Holding 1,017 $ 192 $ 192
Zebra Capital Management Llc 2016-09-30 10,091 Added More 888 $ 168 $ 1,910
Sg Americas Securities Llc 2016-09-30 820 New Holding 820 $ 155 $ 155
Teachers Advisors Inc 2016-09-30 13,496 Added More 767 $ 145 $ 2,554
Piedmont Investment Advisors Llc 2016-09-30 572 Added More 570 $ 107 $ 108
Invictus Rg 2016-09-30 530 New Holding 530 $ 100 $ 100
Wasatch Advisors Inc 2016-09-30 320,072 Added More 522 $ 98 $ 60,592
Blackrock Japan Co Ltd 2016-09-30 414 New Holding 414 $ 78 $ 78
Goodnow Investment Group Llc 2016-09-30 217,261 Added More 270 $ 51 $ 41,129
Creative Planning 2016-09-30 225 Added More 200 $ 37 $ 42
Tudor Investment Corp Et Al 2016-09-30 1,500 Added More 200 $ 37 $ 283
California State Teachers Retirement System 2016-09-30 17,632 Added More 200 $ 37 $ 3,337
Pacer Advisors Inc 2016-09-30 1,188 Added More 163 $ 30 $ 224
Lebenthal Holdings Llc 2016-06-30 7,770 Added More 111 $ 20 $ 1,438
Ftb Advisors Inc 2016-09-30 96 New Holding 96 $ 18 $ 18
Fny Managed Accounts Llc 2016-09-30 75 Added More 32 $ 6 $ 14
Hightower Advisors Llc 2016-09-30 2,104 Added More 31 $ 5 $ 398
Zurcher Kantonalbank Zurich Cantonalbank 2016-09-30 204 Added More 29 $ 5 $ 38
Rhumbline Advisers 2016-09-30 11,692 Added More 21 $ 3 $ 2,213
Highland Capital Management Llc 2016-09-30 2,168 Added More 19 $ 3 $ 410
Us Bancorp De 2016-09-30 484 Added More 12 $ 2 $ 91
Bartlett Co Llc 2016-09-30 800 No Change 0 $ 0 $ 151
First Manhattan Co 2016-09-30 300 No Change 0 $ 0 $ 56
Legal General Group Plc 2016-09-30 717 No Change 0 $ 0 $ 135
Smith Thomas W 2016-09-30 110,678 No Change 0 $ 0 $ 20,952
Nisa Investment Advisors Llc 2016-09-30 3,000 No Change 0 $ 0 $ 567
Omers Administration Corp 2016-09-30 2,200 No Change 0 $ 0 $ 416
Dreman Value Management L L C 2016-09-30 43 No Change 0 $ 0 $ 8
Baupost Group Llc Ma 2016-09-30 100,000 No Change 0 $ 0 $ 18,931
Gabelli Funds Llc 2016-09-30 16,250 No Change 0 $ 0 $ 3,076
Thomas White International Ltd 2016-09-30 35 No Change 0 $ 0 $ 6
Vassalluzzo Scott J 2016-09-30 2,758 No Change 0 $ 0 $ 522
Shell Asset Management Co 2016-09-30 2,612 No Change 0 $ 0 $ 494
Abrams Bison Investments Llc 2016-09-30 1,138,000 No Change 0 $ 0 $ 215,434
Alphamark Advisors Llc 2016-09-30 4,290 No Change 0 $ 0 $ 812
Tributary Capital Management Llc 2016-09-30 2,000 No Change 0 $ 0 $ 378
Psagot Investment House Ltd 2016-09-30 100 No Change 0 $ 0 $ 18
Bloombergsen Inc 2016-09-30 813,537 No Change 0 $ 0 $ 154,010
Prescott General Partners Llc 2016-09-30 2,222,789 No Change 0 $ 0 $ 420,796
Utah Retirement Systems 2016-09-30 1,600 No Change 0 $ 0 $ 302
Investmentaktiengesellschaft Fuer Langfristige Investoren Tg 2016-09-30 100,000 No Change 0 $ 0 $ 18,931
Advisory Services Network Llc 2016-09-30 10 No Change 0 $ 0 $ 1
Parkwood Llc 2016-09-30 2,009 No Change 0 $ 0 $ 380
Capital Impact Advisors Llc 2016-09-30 4,685 No Change 0 $ 0 $ 886
Alps Advisors Inc 2016-09-30 2,135 Sold Some -5 $ -0 $ 404
Gamco Investors Inc Et Al 2016-09-30 3,970 Sold Some -5 $ -0 $ 751
American International Group Inc 2016-09-30 194 Sold Some -9 $ -1 $ 36
Ladenburg Thalmann Financial Services Inc 2016-09-30 171 Sold Some -10 $ -1 $ 32
Advisor Group Inc 2016-09-30 20 Sold Some -27 $ -5 $ 3
Blackrock Inc 2016-09-30 1,158 Sold Some -28 $ -5 $ 219
Aperio Group Llc 2016-09-30 2,547 Sold Some -57 $ -10 $ 482
Blair William Co Il 2016-09-30 13,025 Sold Some -58 $ -10 $ 2,465
Allen Investment Management Llc 2016-09-30 2,793 Sold Some -63 $ -11 $ 528
Pacad Investment Ltd 2016-09-30 1,000 Sold Some -100 $ -18 $ 189
Msi Financial Services Inc 2016-09-30 14 Sold Some -164 $ -31 $ 2
Blackrock Investment Management Llc 2016-09-30 3,117 Sold Some -196 $ -37 $ 590
Checchi Capital Advisers Llc 2016-09-30 0 Sold All -279 $ -52 $ 0
Swiss National Bank 2016-09-30 11,777 Sold Some -400 $ -75 $ 2,229
Horizon Kinetics Llc 2016-09-30 2,070 Sold Some -419 $ -79 $ 391
Ingalls Snyder Llc 2016-09-30 91,799 Sold Some -444 $ -84 $ 17,378
Qcm Cayman Ltd 2016-09-30 1,068 Sold Some -452 $ -85 $ 202
Mariner Wealth Advisors Llc 2016-09-30 2,547 Sold Some -616 $ -116 $ 482
Lebenthal Asset Management Llc 2016-09-30 7,113 Sold Some -657 $ -124 $ 1,346
Billings Capital Management Llc 2016-09-30 92,866 Sold Some -752 $ -142 $ 17,580
Seven Eight Capital Llc 2016-09-30 0 Sold All -797 $ -150 $ 0
Cantillon Capital Management Llc 2016-09-30 412,691 Sold Some -960 $ -181 $ 78,126
Cutler Group Lp 2016-09-30 6,116 Sold Some -1,000 $ -189 $ 1,157
Teacher Retirement System Of Texas 2016-09-30 0 Sold All -1,015 $ -192 $ 0
Eulav Asset Management 2016-09-30 0 Sold All -1,100 $ -208 $ 0
Raymond James Associates 2016-09-30 0 Sold All -1,122 $ -212 $ 0
Oshaughnessy Asset Management Llc 2016-09-30 0 Sold All -1,360 $ -257 $ 0
Dialectic Capital Management Lp 2016-09-30 0 Sold All -1,500 $ -283 $ 0
Brandywine Global Investment Management Llc 2016-09-30 87,321 Sold Some -1,590 $ -301 $ 16,530
Emerald Acquisition Ltd 2016-09-30 501 Sold Some -1,714 $ -324 $ 94
Trellus Management Company Llc 2016-09-30 3,814 Sold Some -1,946 $ -368 $ 722
Origin Asset Management Llp 2016-09-30 34,702 Sold Some -2,000 $ -378 $ 6,569
Envestnet Asset Management Inc 2016-09-30 3,539 Sold Some -2,512 $ -475 $ 669
Bbva Compass Bancshares Inc 2016-09-30 1,298 Sold Some -2,887 $ -546 $ 245
New York State Common Retirement Fund 2016-09-30 18,000 Sold Some -3,000 $ -567 $ 3,407
Seven Bridges Advisors Llc 2016-09-30 12,861 Sold Some -3,053 $ -577 $ 2,434
Beck Mack Oliver Llc 2016-09-30 344,355 Sold Some -3,135 $ -593 $ 65,189
Panagora Asset Management Inc 2016-09-30 870 Sold Some -3,221 $ -609 $ 164
Ramsey Quantitative Systems 2016-09-30 0 Sold All -3,553 $ -672 $ 0
Vident Investment Advisory Llc 2016-09-30 0 Sold All -3,569 $ -675 $ 0
1st Global Advisors Inc 2016-09-30 0 Sold All -4,246 $ -803 $ 0
Marshall Wace Llp 2016-09-30 0 Sold All -4,286 $ -811 $ 0
Quadrature Capital Ltd 2016-09-30 0 Sold All -5,005 $ -947 $ 0
Walleye Trading Llc 2016-09-30 4,806 Sold Some -5,368 $ -1,016 $ 909
Howard Hughes Medical Institute 2016-09-30 36,182 Sold Some -5,503 $ -1,041 $ 6,849
Parametric Portfolio Associates Llc 2016-09-30 36,730 Sold Some -8,919 $ -1,688 $ 6,953
Account Management Llc 2016-09-30 37,961 Sold Some -10,773 $ -2,039 $ 7,186
Qs Investors Llc 2016-09-30 1,341 Sold Some -15,556 $ -2,944 $ 253
Jacobs Levy Equity Management Inc 2016-09-30 0 Sold All -18,490 $ -3,500 $ 0
Makaira Partners Llc 2016-09-30 155,000 Sold Some -50,000 $ -9,465 $ 29,343